sensor_id;sensor_type;location;lat;lon;timestamp;P1;durP1;ratioP1;P2;durP2;ratioP2
42244;SDS011;27912;51.828;5.688;2023-06-10T00:01:47;5.22;;;4.03;;
42244;SDS011;27912;51.828;5.688;2023-06-10T00:04:16;5.85;;;4.20;;
42244;SDS011;27912;51.828;5.688;2023-06-10T00:06:43;7.90;;;4.57;;
42244;SDS011;27912;51.828;5.688;2023-06-10T00:09:08;6.32;;;5.18;;
42244;SDS011;27912;51.828;5.688;2023-06-10T00:11:39;7.70;;;4.93;;
42244;SDS011;27912;51.828;5.688;2023-06-10T00:14:05;5.70;;;4.45;;
42244;SDS011;27912;51.828;5.688;2023-06-10T00:16:30;6.05;;;5.15;;
42244;SDS011;27912;51.828;5.688;2023-06-10T00:18:56;10.13;;;5.70;;
42244;SDS011;27912;51.828;5.688;2023-06-10T00:21:29;6.60;;;3.80;;
42244;SDS011;27912;51.828;5.688;2023-06-10T00:24:02;6.40;;;5.20;;
42244;SDS011;27912;51.828;5.688;2023-06-10T00:26:30;7.15;;;4.22;;
42244;SDS011;27912;51.828;5.688;2023-06-10T00:28:55;6.18;;;5.15;;
42244;SDS011;27912;51.828;5.688;2023-06-10T00:31:21;7.85;;;5.35;;
42244;SDS011;27912;51.828;5.688;2023-06-10T00:33:47;6.47;;;4.88;;
42244;SDS011;27912;51.828;5.688;2023-06-10T00:36:12;6.40;;;4.55;;
42244;SDS011;27912;51.828;5.688;2023-06-10T00:38:38;6.38;;;5.32;;
42244;SDS011;27912;51.828;5.688;2023-06-10T00:41:05;10.75;;;5.13;;
42244;SDS011;27912;51.828;5.688;2023-06-10T00:43:30;6.82;;;4.50;;
42244;SDS011;27912;51.828;5.688;2023-06-10T00:45:56;9.10;;;4.88;;
42244;SDS011;27912;51.828;5.688;2023-06-10T00:48:22;6.07;;;4.85;;
42244;SDS011;27912;51.828;5.688;2023-06-10T00:50:47;9.27;;;5.57;;
42244;SDS011;27912;51.828;5.688;2023-06-10T00:53:13;8.75;;;5.20;;
42244;SDS011;27912;51.828;5.688;2023-06-10T00:55:40;6.45;;;4.75;;
42244;SDS011;27912;51.828;5.688;2023-06-10T00:58:06;7.75;;;4.78;;
42244;SDS011;27912;51.828;5.688;2023-06-10T01:00:32;7.22;;;4.95;;
42244;SDS011;27912;51.828;5.688;2023-06-10T01:02:58;7.07;;;5.22;;
42244;SDS011;27912;51.828;5.688;2023-06-10T01:05:23;7.43;;;4.68;;
42244;SDS011;27912;51.828;5.688;2023-06-10T01:11:03;5.53;;;4.70;;
42244;SDS011;27912;51.828;5.688;2023-06-10T01:13:33;7.13;;;5.40;;
42244;SDS011;27912;51.828;5.688;2023-06-10T01:16:01;8.88;;;5.68;;
42244;SDS011;27912;51.828;5.688;2023-06-10T01:18:33;9.05;;;5.95;;
42244;SDS011;27912;51.828;5.688;2023-06-10T01:20:58;6.70;;;5.10;;
42244;SDS011;27912;51.828;5.688;2023-06-10T01:23:24;8.82;;;5.30;;
42244;SDS011;27912;51.828;5.688;2023-06-10T01:25:53;8.45;;;5.85;;
42244;SDS011;27912;51.828;5.688;2023-06-10T01:28:27;6.82;;;5.20;;
42244;SDS011;27912;51.828;5.688;2023-06-10T01:33:58;7.28;;;5.28;;
42244;SDS011;27912;51.828;5.688;2023-06-10T01:36:25;6.30;;;5.15;;
42244;SDS011;27912;51.828;5.688;2023-06-10T01:38:52;9.32;;;5.85;;
42244;SDS011;27912;51.828;5.688;2023-06-10T01:41:18;7.65;;;5.50;;
42244;SDS011;27912;51.828;5.688;2023-06-10T01:43:46;8.48;;;5.57;;
42244;SDS011;27912;51.828;5.688;2023-06-10T01:46:12;8.00;;;5.40;;
42244;SDS011;27912;51.828;5.688;2023-06-10T01:48:40;8.55;;;5.68;;
42244;SDS011;27912;51.828;5.688;2023-06-10T01:51:07;7.50;;;5.90;;
42244;SDS011;27912;51.828;5.688;2023-06-10T01:53:33;6.82;;;5.07;;
42244;SDS011;27912;51.828;5.688;2023-06-10T01:55:58;7.35;;;5.10;;
42244;SDS011;27912;51.828;5.688;2023-06-10T01:58:24;7.75;;;5.75;;
42244;SDS011;27912;51.828;5.688;2023-06-10T02:00:50;9.52;;;5.82;;
42244;SDS011;27912;51.828;5.688;2023-06-10T02:03:16;7.45;;;5.03;;
42244;SDS011;27912;51.828;5.688;2023-06-10T02:05:41;9.27;;;5.03;;
42244;SDS011;27912;51.828;5.688;2023-06-10T02:08:07;6.60;;;5.18;;
42244;SDS011;27912;51.828;5.688;2023-06-10T02:10:32;6.22;;;5.25;;
42244;SDS011;27912;51.828;5.688;2023-06-10T02:12:59;8.65;;;5.95;;
42244;SDS011;27912;51.828;5.688;2023-06-10T02:15:25;7.82;;;6.07;;
42244;SDS011;27912;51.828;5.688;2023-06-10T02:17:51;8.02;;;4.78;;
42244;SDS011;27912;51.828;5.688;2023-06-10T02:20:17;8.43;;;5.18;;
42244;SDS011;27912;51.828;5.688;2023-06-10T02:22:42;10.27;;;5.70;;
42244;SDS011;27912;51.828;5.688;2023-06-10T02:25:08;8.23;;;5.90;;
42244;SDS011;27912;51.828;5.688;2023-06-10T02:27:34;9.18;;;5.22;;
42244;SDS011;27912;51.828;5.688;2023-06-10T02:29:59;9.50;;;5.45;;
42244;SDS011;27912;51.828;5.688;2023-06-10T02:32:25;9.70;;;5.03;;
42244;SDS011;27912;51.828;5.688;2023-06-10T02:34:51;8.77;;;5.35;;
42244;SDS011;27912;51.828;5.688;2023-06-10T02:37:17;7.93;;;5.75;;
42244;SDS011;27912;51.828;5.688;2023-06-10T02:39:42;8.65;;;5.82;;
42244;SDS011;27912;51.828;5.688;2023-06-10T02:42:08;9.15;;;5.65;;
42244;SDS011;27912;51.828;5.688;2023-06-10T02:44:35;5.88;;;5.18;;
42244;SDS011;27912;51.828;5.688;2023-06-10T02:47:00;9.57;;;5.95;;
42244;SDS011;27912;51.828;5.688;2023-06-10T02:49:26;9.75;;;4.88;;
42244;SDS011;27912;51.828;5.688;2023-06-10T02:51:54;9.20;;;5.72;;
42244;SDS011;27912;51.828;5.688;2023-06-10T02:54:21;8.65;;;5.70;;
42244;SDS011;27912;51.828;5.688;2023-06-10T02:56:48;8.45;;;5.78;;
42244;SDS011;27912;51.828;5.688;2023-06-10T02:59:14;7.43;;;5.10;;
42244;SDS011;27912;51.828;5.688;2023-06-10T03:01:39;7.40;;;5.72;;
42244;SDS011;27912;51.828;5.688;2023-06-10T03:04:05;7.25;;;4.93;;
42244;SDS011;27912;51.828;5.688;2023-06-10T03:06:32;9.52;;;6.25;;
42244;SDS011;27912;51.828;5.688;2023-06-10T03:08:59;7.75;;;5.38;;
42244;SDS011;27912;51.828;5.688;2023-06-10T03:11:25;9.32;;;6.00;;
42244;SDS011;27912;51.828;5.688;2023-06-10T03:13:51;10.07;;;5.97;;
42244;SDS011;27912;51.828;5.688;2023-06-10T03:16:18;7.35;;;5.55;;
42244;SDS011;27912;51.828;5.688;2023-06-10T03:18:44;10.63;;;5.72;;
42244;SDS011;27912;51.828;5.688;2023-06-10T03:21:09;6.35;;;4.70;;
42244;SDS011;27912;51.828;5.688;2023-06-10T03:23:35;9.07;;;4.90;;
42244;SDS011;27912;51.828;5.688;2023-06-10T03:26:02;9.50;;;5.60;;
42244;SDS011;27912;51.828;5.688;2023-06-10T03:28:27;8.30;;;4.63;;
42244;SDS011;27912;51.828;5.688;2023-06-10T03:30:53;7.53;;;5.57;;
42244;SDS011;27912;51.828;5.688;2023-06-10T03:33:18;6.80;;;4.75;;
42244;SDS011;27912;51.828;5.688;2023-06-10T03:35:44;10.40;;;5.15;;
42244;SDS011;27912;51.828;5.688;2023-06-10T03:38:09;9.63;;;5.03;;
42244;SDS011;27912;51.828;5.688;2023-06-10T03:40:35;6.68;;;4.35;;
42244;SDS011;27912;51.828;5.688;2023-06-10T03:43:01;12.45;;;5.22;;
42244;SDS011;27912;51.828;5.688;2023-06-10T03:45:27;10.82;;;4.70;;
42244;SDS011;27912;51.828;5.688;2023-06-10T03:47:53;8.35;;;4.78;;
42244;SDS011;27912;51.828;5.688;2023-06-10T03:50:20;6.15;;;4.22;;
42244;SDS011;27912;51.828;5.688;2023-06-10T03:52:47;7.88;;;4.75;;
42244;SDS011;27912;51.828;5.688;2023-06-10T03:55:13;9.52;;;4.68;;
42244;SDS011;27912;51.828;5.688;2023-06-10T03:57:38;8.45;;;4.93;;
42244;SDS011;27912;51.828;5.688;2023-06-10T04:00:04;7.55;;;4.97;;
42244;SDS011;27912;51.828;5.688;2023-06-10T04:02:35;7.18;;;4.50;;
42244;SDS011;27912;51.828;5.688;2023-06-10T04:05:01;8.65;;;4.65;;
42244;SDS011;27912;51.828;5.688;2023-06-10T04:07:27;8.30;;;4.68;;
42244;SDS011;27912;51.828;5.688;2023-06-10T04:09:53;8.70;;;4.45;;
42244;SDS011;27912;51.828;5.688;2023-06-10T04:12:19;7.70;;;4.65;;
42244;SDS011;27912;51.828;5.688;2023-06-10T04:14:44;7.30;;;4.65;;
42244;SDS011;27912;51.828;5.688;2023-06-10T04:17:10;9.75;;;5.10;;
42244;SDS011;27912;51.828;5.688;2023-06-10T04:19:38;11.30;;;5.07;;
42244;SDS011;27912;51.828;5.688;2023-06-10T04:22:04;8.63;;;4.75;;
42244;SDS011;27912;51.828;5.688;2023-06-10T04:24:30;10.18;;;4.53;;
42244;SDS011;27912;51.828;5.688;2023-06-10T04:26:55;8.93;;;5.28;;
42244;SDS011;27912;51.828;5.688;2023-06-10T04:29:21;7.68;;;4.03;;
42244;SDS011;27912;51.828;5.688;2023-06-10T04:31:47;10.45;;;5.07;;
42244;SDS011;27912;51.828;5.688;2023-06-10T04:34:13;8.18;;;4.63;;
42244;SDS011;27912;51.828;5.688;2023-06-10T04:36:39;12.25;;;4.75;;
42244;SDS011;27912;51.828;5.688;2023-06-10T04:39:04;7.80;;;5.28;;
42244;SDS011;27912;51.828;5.688;2023-06-10T04:41:30;7.63;;;4.70;;
42244;SDS011;27912;51.828;5.688;2023-06-10T04:43:56;5.60;;;3.58;;
42244;SDS011;27912;51.828;5.688;2023-06-10T04:46:22;8.77;;;5.45;;
42244;SDS011;27912;51.828;5.688;2023-06-10T04:48:49;6.30;;;3.72;;
42244;SDS011;27912;51.828;5.688;2023-06-10T04:51:14;7.60;;;4.68;;
42244;SDS011;27912;51.828;5.688;2023-06-10T04:53:40;9.45;;;3.90;;
42244;SDS011;27912;51.828;5.688;2023-06-10T04:56:05;17.02;;;5.03;;
42244;SDS011;27912;51.828;5.688;2023-06-10T04:58:32;8.60;;;4.90;;
42244;SDS011;27912;51.828;5.688;2023-06-10T05:00:58;11.13;;;4.88;;
42244;SDS011;27912;51.828;5.688;2023-06-10T05:03:24;9.40;;;4.13;;
42244;SDS011;27912;51.828;5.688;2023-06-10T05:05:50;10.07;;;5.00;;
42244;SDS011;27912;51.828;5.688;2023-06-10T05:08:16;8.75;;;4.78;;
42244;SDS011;27912;51.828;5.688;2023-06-10T05:10:41;10.00;;;5.55;;
42244;SDS011;27912;51.828;5.688;2023-06-10T05:13:07;7.57;;;5.00;;
42244;SDS011;27912;51.828;5.688;2023-06-10T05:15:32;7.80;;;4.78;;
42244;SDS011;27912;51.828;5.688;2023-06-10T05:17:58;13.48;;;6.10;;
42244;SDS011;27912;51.828;5.688;2023-06-10T05:20:24;8.48;;;4.95;;
42244;SDS011;27912;51.828;5.688;2023-06-10T05:22:50;6.32;;;4.28;;
42244;SDS011;27912;51.828;5.688;2023-06-10T05:25:16;5.75;;;4.20;;
42244;SDS011;27912;51.828;5.688;2023-06-10T05:27:41;7.70;;;4.97;;
42244;SDS011;27912;51.828;5.688;2023-06-10T05:30:08;9.15;;;4.43;;
42244;SDS011;27912;51.828;5.688;2023-06-10T05:32:35;7.38;;;4.20;;
42244;SDS011;27912;51.828;5.688;2023-06-10T05:35:00;7.20;;;4.20;;
42244;SDS011;27912;51.828;5.688;2023-06-10T05:37:26;6.30;;;4.15;;
42244;SDS011;27912;51.828;5.688;2023-06-10T05:39:52;6.80;;;4.20;;
42244;SDS011;27912;51.828;5.688;2023-06-10T05:42:17;11.55;;;4.60;;
42244;SDS011;27912;51.828;5.688;2023-06-10T05:44:43;7.28;;;4.90;;
42244;SDS011;27912;51.828;5.688;2023-06-10T05:47:08;6.03;;;4.32;;
42244;SDS011;27912;51.828;5.688;2023-06-10T05:49:34;8.95;;;4.22;;
42244;SDS011;27912;51.828;5.688;2023-06-10T05:52:00;8.43;;;5.50;;
42244;SDS011;27912;51.828;5.688;2023-06-10T05:54:26;9.00;;;4.72;;
42244;SDS011;27912;51.828;5.688;2023-06-10T05:56:51;7.30;;;3.95;;
42244;SDS011;27912;51.828;5.688;2023-06-10T05:59:17;10.18;;;4.80;;
42244;SDS011;27912;51.828;5.688;2023-06-10T06:01:42;8.65;;;5.43;;
42244;SDS011;27912;51.828;5.688;2023-06-10T06:04:08;10.60;;;5.68;;
42244;SDS011;27912;51.828;5.688;2023-06-10T06:06:34;7.35;;;4.63;;
42244;SDS011;27912;51.828;5.688;2023-06-10T06:09:00;6.38;;;4.20;;
42244;SDS011;27912;51.828;5.688;2023-06-10T06:11:26;7.68;;;4.72;;
42244;SDS011;27912;51.828;5.688;2023-06-10T06:13:52;7.03;;;5.05;;
42244;SDS011;27912;51.828;5.688;2023-06-10T06:16:17;10.88;;;4.93;;
42244;SDS011;27912;51.828;5.688;2023-06-10T06:18:43;9.05;;;5.47;;
42244;SDS011;27912;51.828;5.688;2023-06-10T06:21:09;8.60;;;4.97;;
42244;SDS011;27912;51.828;5.688;2023-06-10T06:23:34;10.32;;;5.22;;
42244;SDS011;27912;51.828;5.688;2023-06-10T06:26:00;7.82;;;4.45;;
42244;SDS011;27912;51.828;5.688;2023-06-10T06:28:26;9.27;;;5.15;;
42244;SDS011;27912;51.828;5.688;2023-06-10T06:30:54;10.18;;;4.80;;
42244;SDS011;27912;51.828;5.688;2023-06-10T06:33:20;10.10;;;5.53;;
42244;SDS011;27912;51.828;5.688;2023-06-10T06:35:46;8.90;;;5.13;;
42244;SDS011;27912;51.828;5.688;2023-06-10T06:38:11;8.27;;;4.38;;
42244;SDS011;27912;51.828;5.688;2023-06-10T06:40:37;9.27;;;5.15;;
42244;SDS011;27912;51.828;5.688;2023-06-10T06:43:02;8.68;;;5.25;;
42244;SDS011;27912;51.828;5.688;2023-06-10T06:45:28;7.55;;;4.22;;
42244;SDS011;27912;51.828;5.688;2023-06-10T06:47:53;8.93;;;4.90;;
42244;SDS011;27912;51.828;5.688;2023-06-10T06:50:20;9.73;;;4.38;;
42244;SDS011;27912;51.828;5.688;2023-06-10T06:52:46;6.75;;;4.05;;
42244;SDS011;27912;51.828;5.688;2023-06-10T06:55:12;6.00;;;4.07;;
42244;SDS011;27912;51.828;5.688;2023-06-10T06:57:37;8.27;;;4.82;;
42244;SDS011;27912;51.828;5.688;2023-06-10T07:00:03;9.68;;;4.40;;
42244;SDS011;27912;51.828;5.688;2023-06-10T07:02:29;5.80;;;4.50;;
42244;SDS011;27912;51.828;5.688;2023-06-10T07:04:57;10.68;;;4.75;;
42244;SDS011;27912;51.828;5.688;2023-06-10T07:07:23;10.55;;;5.00;;
42244;SDS011;27912;51.828;5.688;2023-06-10T07:09:49;9.57;;;4.50;;
42244;SDS011;27912;51.828;5.688;2023-06-10T07:12:15;12.27;;;5.18;;
42244;SDS011;27912;51.828;5.688;2023-06-10T07:14:41;7.78;;;4.85;;
42244;SDS011;27912;51.828;5.688;2023-06-10T07:17:06;10.90;;;4.53;;
42244;SDS011;27912;51.828;5.688;2023-06-10T07:19:32;7.03;;;4.57;;
42244;SDS011;27912;51.828;5.688;2023-06-10T07:21:57;8.35;;;4.43;;
42244;SDS011;27912;51.828;5.688;2023-06-10T07:24:23;6.28;;;4.43;;
42244;SDS011;27912;51.828;5.688;2023-06-10T07:26:48;7.53;;;4.20;;
42244;SDS011;27912;51.828;5.688;2023-06-10T07:29:14;9.32;;;4.15;;
42244;SDS011;27912;51.828;5.688;2023-06-10T07:31:40;7.72;;;4.90;;
42244;SDS011;27912;51.828;5.688;2023-06-10T07:34:06;8.13;;;4.93;;
42244;SDS011;27912;51.828;5.688;2023-06-10T07:36:32;6.90;;;4.28;;
42244;SDS011;27912;51.828;5.688;2023-06-10T07:38:58;7.97;;;4.60;;
42244;SDS011;27912;51.828;5.688;2023-06-10T07:41:23;10.23;;;4.95;;
42244;SDS011;27912;51.828;5.688;2023-06-10T07:43:52;12.85;;;5.43;;
42244;SDS011;27912;51.828;5.688;2023-06-10T07:46:21;8.35;;;4.32;;
42244;SDS011;27912;51.828;5.688;2023-06-10T07:48:48;7.10;;;3.65;;
42244;SDS011;27912;51.828;5.688;2023-06-10T07:51:14;5.47;;;4.00;;
42244;SDS011;27912;51.828;5.688;2023-06-10T07:53:40;7.75;;;3.85;;
42244;SDS011;27912;51.828;5.688;2023-06-10T07:56:06;6.18;;;3.70;;
42244;SDS011;27912;51.828;5.688;2023-06-10T07:58:31;9.85;;;4.32;;
42244;SDS011;27912;51.828;5.688;2023-06-10T08:00:57;6.30;;;3.88;;
42244;SDS011;27912;51.828;5.688;2023-06-10T08:03:22;6.22;;;4.10;;
42244;SDS011;27912;51.828;5.688;2023-06-10T08:05:48;8.68;;;4.07;;
42244;SDS011;27912;51.828;5.688;2023-06-10T08:08:14;6.50;;;3.90;;
42244;SDS011;27912;51.828;5.688;2023-06-10T08:10:39;7.35;;;3.85;;
42244;SDS011;27912;51.828;5.688;2023-06-10T08:13:05;9.55;;;4.60;;
42244;SDS011;27912;51.828;5.688;2023-06-10T08:15:30;7.90;;;4.60;;
42244;SDS011;27912;51.828;5.688;2023-06-10T08:17:56;12.55;;;4.82;;
42244;SDS011;27912;51.828;5.688;2023-06-10T08:20:21;7.18;;;4.50;;
42244;SDS011;27912;51.828;5.688;2023-06-10T08:22:47;6.47;;;4.55;;
42244;SDS011;27912;51.828;5.688;2023-06-10T08:25:13;5.90;;;4.18;;
42244;SDS011;27912;51.828;5.688;2023-06-10T08:27:38;6.53;;;4.53;;
42244;SDS011;27912;51.828;5.688;2023-06-10T08:30:04;8.65;;;4.22;;
42244;SDS011;27912;51.828;5.688;2023-06-10T08:32:30;10.27;;;4.85;;
42244;SDS011;27912;51.828;5.688;2023-06-10T08:34:55;6.32;;;4.03;;
42244;SDS011;27912;51.828;5.688;2023-06-10T08:37:21;6.93;;;4.47;;
42244;SDS011;27912;51.828;5.688;2023-06-10T08:39:47;6.65;;;4.50;;
42244;SDS011;27912;51.828;5.688;2023-06-10T08:44:44;8.52;;;5.25;;
42244;SDS011;27912;51.828;5.688;2023-06-10T08:47:14;9.00;;;5.18;;
42244;SDS011;27912;51.828;5.688;2023-06-10T08:49:42;7.43;;;4.28;;
42244;SDS011;27912;51.828;5.688;2023-06-10T08:52:16;8.15;;;4.50;;
42244;SDS011;27912;51.828;5.688;2023-06-10T08:54:45;7.40;;;4.25;;
42244;SDS011;27912;51.828;5.688;2023-06-10T08:57:21;9.25;;;4.65;;
42244;SDS011;27912;51.828;5.688;2023-06-10T08:59:48;6.75;;;4.50;;
42244;SDS011;27912;51.828;5.688;2023-06-10T09:02:14;8.63;;;4.80;;
42244;SDS011;27912;51.828;5.688;2023-06-10T09:04:43;7.20;;;3.78;;
42244;SDS011;27912;51.828;5.688;2023-06-10T09:07:10;7.85;;;4.65;;
42244;SDS011;27912;51.828;5.688;2023-06-10T09:09:37;6.75;;;4.40;;
42244;SDS011;27912;51.828;5.688;2023-06-10T09:12:03;6.47;;;4.18;;
42244;SDS011;27912;51.828;5.688;2023-06-10T09:14:29;6.75;;;4.28;;
42244;SDS011;27912;51.828;5.688;2023-06-10T09:16:55;8.73;;;4.25;;
42244;SDS011;27912;51.828;5.688;2023-06-10T09:19:23;10.57;;;4.85;;
42244;SDS011;27912;51.828;5.688;2023-06-10T09:21:50;7.55;;;4.68;;
42244;SDS011;27912;51.828;5.688;2023-06-10T09:24:15;8.63;;;4.63;;
42244;SDS011;27912;51.828;5.688;2023-06-10T09:26:41;9.85;;;4.75;;
42244;SDS011;27912;51.828;5.688;2023-06-10T09:29:08;6.90;;;4.57;;
42244;SDS011;27912;51.828;5.688;2023-06-10T09:31:35;6.20;;;3.65;;
42244;SDS011;27912;51.828;5.688;2023-06-10T09:34:24;8.13;;;5.05;;
42244;SDS011;27912;51.828;5.688;2023-06-10T09:36:50;9.65;;;4.63;;
42244;SDS011;27912;51.828;5.688;2023-06-10T09:39:18;6.40;;;4.10;;
42244;SDS011;27912;51.828;5.688;2023-06-10T09:41:44;5.45;;;4.38;;
42244;SDS011;27912;51.828;5.688;2023-06-10T09:44:14;7.60;;;4.18;;
42244;SDS011;27912;51.828;5.688;2023-06-10T09:46:41;6.03;;;3.75;;
42244;SDS011;27912;51.828;5.688;2023-06-10T09:49:07;8.40;;;4.53;;
42244;SDS011;27912;51.828;5.688;2023-06-10T09:51:33;6.97;;;4.22;;
42244;SDS011;27912;51.828;5.688;2023-06-10T09:53:59;7.45;;;4.32;;
42244;SDS011;27912;51.828;5.688;2023-06-10T09:56:34;10.48;;;4.53;;
42244;SDS011;27912;51.828;5.688;2023-06-10T09:59:01;8.57;;;3.63;;
42244;SDS011;27912;51.828;5.688;2023-06-10T10:01:27;5.68;;;3.78;;
42244;SDS011;27912;51.828;5.688;2023-06-10T10:03:53;6.45;;;4.00;;
42244;SDS011;27912;51.828;5.688;2023-06-10T10:06:19;5.20;;;3.17;;
42244;SDS011;27912;51.828;5.688;2023-06-10T10:08:46;8.98;;;3.72;;
42244;SDS011;27912;51.828;5.688;2023-06-10T10:11:14;8.18;;;3.47;;
42244;SDS011;27912;51.828;5.688;2023-06-10T10:13:42;5.95;;;3.35;;
42244;SDS011;27912;51.828;5.688;2023-06-10T10:16:11;6.13;;;3.15;;
42244;SDS011;27912;51.828;5.688;2023-06-10T10:18:41;6.43;;;3.80;;
42244;SDS011;27912;51.828;5.688;2023-06-10T10:21:13;8.20;;;4.07;;
42244;SDS011;27912;51.828;5.688;2023-06-10T10:23:45;7.03;;;3.30;;
42244;SDS011;27912;51.828;5.688;2023-06-10T10:26:26;7.78;;;4.18;;
42244;SDS011;27912;51.828;5.688;2023-06-10T10:29:07;11.32;;;4.25;;
42244;SDS011;27912;51.828;5.688;2023-06-10T10:31:39;6.68;;;3.22;;
42244;SDS011;27912;51.828;5.688;2023-06-10T10:34:09;6.50;;;3.83;;
42244;SDS011;27912;51.828;5.688;2023-06-10T10:36:40;5.65;;;3.22;;
42244;SDS011;27912;51.828;5.688;2023-06-10T10:39:06;6.30;;;3.95;;
42244;SDS011;27912;51.828;5.688;2023-06-10T10:41:32;6.32;;;3.47;;
42244;SDS011;27912;51.828;5.688;2023-06-10T10:43:58;5.53;;;3.03;;
42244;SDS011;27912;51.828;5.688;2023-06-10T10:46:25;5.70;;;3.35;;
42244;SDS011;27912;51.828;5.688;2023-06-10T10:48:52;7.38;;;3.22;;
42244;SDS011;27912;51.828;5.688;2023-06-10T10:51:19;3.80;;;2.92;;
42244;SDS011;27912;51.828;5.688;2023-06-10T10:54:02;4.95;;;2.90;;
42244;SDS011;27912;51.828;5.688;2023-06-10T10:56:38;5.25;;;2.90;;
42244;SDS011;27912;51.828;5.688;2023-06-10T10:59:04;5.88;;;3.10;;
42244;SDS011;27912;51.828;5.688;2023-06-10T11:01:40;7.18;;;2.83;;
42244;SDS011;27912;51.828;5.688;2023-06-10T11:04:07;6.43;;;2.97;;
42244;SDS011;27912;51.828;5.688;2023-06-10T11:06:34;8.73;;;2.67;;
42244;SDS011;27912;51.828;5.688;2023-06-10T11:09:00;5.20;;;3.13;;
42244;SDS011;27912;51.828;5.688;2023-06-10T11:11:26;4.85;;;2.60;;
42244;SDS011;27912;51.828;5.688;2023-06-10T11:16:37;8.68;;;2.85;;
42244;SDS011;27912;51.828;5.688;2023-06-10T11:19:07;3.58;;;2.92;;
42244;SDS011;27912;51.828;5.688;2023-06-10T11:24:24;4.50;;;2.65;;
42244;SDS011;27912;51.828;5.688;2023-06-10T11:26:51;6.53;;;3.15;;
42244;SDS011;27912;51.828;5.688;2023-06-10T11:29:16;4.75;;;3.13;;
42244;SDS011;27912;51.828;5.688;2023-06-10T11:31:45;5.28;;;2.90;;
42244;SDS011;27912;51.828;5.688;2023-06-10T11:34:15;4.18;;;2.55;;
42244;SDS011;27912;51.828;5.688;2023-06-10T11:36:51;3.75;;;2.97;;
42244;SDS011;27912;51.828;5.688;2023-06-10T11:39:20;4.68;;;3.03;;
42244;SDS011;27912;51.828;5.688;2023-06-10T11:41:48;4.40;;;3.22;;
42244;SDS011;27912;51.828;5.688;2023-06-10T11:44:15;4.47;;;2.60;;
42244;SDS011;27912;51.828;5.688;2023-06-10T11:46:41;3.42;;;2.17;;
42244;SDS011;27912;51.828;5.688;2023-06-10T11:49:09;3.50;;;2.58;;
42244;SDS011;27912;51.828;5.688;2023-06-10T11:51:37;3.92;;;2.75;;
42244;SDS011;27912;51.828;5.688;2023-06-10T11:54:04;4.80;;;2.35;;
42244;SDS011;27912;51.828;5.688;2023-06-10T11:56:30;5.03;;;3.08;;
42244;SDS011;27912;51.828;5.688;2023-06-10T11:58:57;6.82;;;2.88;;
42244;SDS011;27912;51.828;5.688;2023-06-10T12:01:30;6.28;;;2.97;;
42244;SDS011;27912;51.828;5.688;2023-06-10T12:03:58;6.15;;;2.95;;
42244;SDS011;27912;51.828;5.688;2023-06-10T12:06:24;4.03;;;2.97;;
42244;SDS011;27912;51.828;5.688;2023-06-10T12:08:50;4.68;;;3.03;;
42244;SDS011;27912;51.828;5.688;2023-06-10T12:11:16;5.32;;;2.72;;
42244;SDS011;27912;51.828;5.688;2023-06-10T12:13:48;6.13;;;3.10;;
42244;SDS011;27912;51.828;5.688;2023-06-10T12:16:15;7.07;;;2.63;;
42244;SDS011;27912;51.828;5.688;2023-06-10T12:18:43;3.58;;;2.40;;
42244;SDS011;27912;51.828;5.688;2023-06-10T12:21:19;3.95;;;2.60;;
42244;SDS011;27912;51.828;5.688;2023-06-10T12:24:03;6.90;;;2.72;;
42244;SDS011;27912;51.828;5.688;2023-06-10T12:26:34;3.28;;;2.50;;
42244;SDS011;27912;51.828;5.688;2023-06-10T12:29:17;5.15;;;2.45;;
42244;SDS011;27912;51.828;5.688;2023-06-10T12:31:57;4.50;;;2.40;;
42244;SDS011;27912;51.828;5.688;2023-06-10T12:34:37;6.10;;;2.80;;
42244;SDS011;27912;51.828;5.688;2023-06-10T12:37:05;4.90;;;2.72;;
42244;SDS011;27912;51.828;5.688;2023-06-10T12:39:42;7.05;;;2.92;;
42244;SDS011;27912;51.828;5.688;2023-06-10T12:42:17;3.85;;;2.70;;
42244;SDS011;27912;51.828;5.688;2023-06-10T12:44:42;4.32;;;2.53;;
42244;SDS011;27912;51.828;5.688;2023-06-10T12:47:08;3.90;;;2.75;;
42244;SDS011;27912;51.828;5.688;2023-06-10T12:49:35;5.68;;;2.30;;
42244;SDS011;27912;51.828;5.688;2023-06-10T12:52:01;4.53;;;2.45;;
42244;SDS011;27912;51.828;5.688;2023-06-10T12:54:27;3.63;;;2.10;;
42244;SDS011;27912;51.828;5.688;2023-06-10T12:56:53;2.83;;;2.50;;
42244;SDS011;27912;51.828;5.688;2023-06-10T12:59:18;4.55;;;2.70;;
42244;SDS011;27912;51.828;5.688;2023-06-10T13:01:44;5.03;;;2.55;;
42244;SDS011;27912;51.828;5.688;2023-06-10T13:04:15;6.20;;;2.60;;
42244;SDS011;27912;51.828;5.688;2023-06-10T13:06:41;2.95;;;2.40;;
42244;SDS011;27912;51.828;5.688;2023-06-10T13:09:06;3.38;;;2.58;;
42244;SDS011;27912;51.828;5.688;2023-06-10T13:11:32;3.38;;;2.40;;
42244;SDS011;27912;51.828;5.688;2023-06-10T13:13:57;5.45;;;2.50;;
42244;SDS011;27912;51.828;5.688;2023-06-10T13:16:23;3.85;;;2.60;;
42244;SDS011;27912;51.828;5.688;2023-06-10T13:18:49;5.63;;;2.83;;
42244;SDS011;27912;51.828;5.688;2023-06-10T13:21:14;4.53;;;2.55;;
42244;SDS011;27912;51.828;5.688;2023-06-10T13:23:40;3.97;;;2.65;;
42244;SDS011;27912;51.828;5.688;2023-06-10T13:26:08;3.42;;;1.95;;
42244;SDS011;27912;51.828;5.688;2023-06-10T13:28:34;3.53;;;2.50;;
42244;SDS011;27912;51.828;5.688;2023-06-10T13:30:59;8.38;;;3.13;;
42244;SDS011;27912;51.828;5.688;2023-06-10T13:33:25;5.55;;;2.60;;
42244;SDS011;27912;51.828;5.688;2023-06-10T13:35:50;4.22;;;2.72;;
42244;SDS011;27912;51.828;5.688;2023-06-10T13:38:16;4.57;;;2.28;;
42244;SDS011;27912;51.828;5.688;2023-06-10T13:40:41;6.07;;;2.63;;
42244;SDS011;27912;51.828;5.688;2023-06-10T13:43:07;3.15;;;2.47;;
42244;SDS011;27912;51.828;5.688;2023-06-10T13:45:34;5.80;;;2.47;;
42244;SDS011;27912;51.828;5.688;2023-06-10T13:48:00;3.03;;;2.22;;
42244;SDS011;27912;51.828;5.688;2023-06-10T13:50:26;4.07;;;2.85;;
42244;SDS011;27912;51.828;5.688;2023-06-10T13:52:52;4.82;;;3.25;;
42244;SDS011;27912;51.828;5.688;2023-06-10T13:55:17;4.10;;;2.50;;
42244;SDS011;27912;51.828;5.688;2023-06-10T13:57:44;5.80;;;2.65;;
42244;SDS011;27912;51.828;5.688;2023-06-10T14:00:10;3.15;;;2.28;;
42244;SDS011;27912;51.828;5.688;2023-06-10T14:02:36;5.07;;;2.60;;
42244;SDS011;27912;51.828;5.688;2023-06-10T14:05:02;3.90;;;2.65;;
42244;SDS011;27912;51.828;5.688;2023-06-10T14:07:28;4.55;;;2.60;;
42244;SDS011;27912;51.828;5.688;2023-06-10T14:09:53;3.17;;;2.45;;
42244;SDS011;27912;51.828;5.688;2023-06-10T14:12:19;5.97;;;2.50;;
42244;SDS011;27912;51.828;5.688;2023-06-10T14:14:44;3.60;;;2.60;;
42244;SDS011;27912;51.828;5.688;2023-06-10T14:17:10;7.30;;;3.00;;
42244;SDS011;27912;51.828;5.688;2023-06-10T14:19:35;2.72;;;2.00;;
42244;SDS011;27912;51.828;5.688;2023-06-10T14:22:01;4.22;;;2.50;;
42244;SDS011;27912;51.828;5.688;2023-06-10T14:24:26;3.70;;;2.75;;
42244;SDS011;27912;51.828;5.688;2023-06-10T14:26:52;3.92;;;2.92;;
42244;SDS011;27912;51.828;5.688;2023-06-10T14:29:17;3.90;;;2.38;;
42244;SDS011;27912;51.828;5.688;2023-06-10T14:31:44;4.47;;;3.00;;
42244;SDS011;27912;51.828;5.688;2023-06-10T14:34:09;4.47;;;3.10;;
42244;SDS011;27912;51.828;5.688;2023-06-10T14:36:35;4.88;;;2.80;;
42244;SDS011;27912;51.828;5.688;2023-06-10T14:39:02;4.40;;;2.70;;
42244;SDS011;27912;51.828;5.688;2023-06-10T14:41:27;6.05;;;2.50;;
42244;SDS011;27912;51.828;5.688;2023-06-10T14:43:53;4.30;;;2.25;;
42244;SDS011;27912;51.828;5.688;2023-06-10T14:46:18;4.53;;;2.65;;
42244;SDS011;27912;51.828;5.688;2023-06-10T14:48:45;4.40;;;3.42;;
42244;SDS011;27912;51.828;5.688;2023-06-10T14:51:11;3.67;;;2.47;;
42244;SDS011;27912;51.828;5.688;2023-06-10T14:53:37;3.58;;;2.60;;
42244;SDS011;27912;51.828;5.688;2023-06-10T14:56:02;4.05;;;2.75;;
42244;SDS011;27912;51.828;5.688;2023-06-10T14:58:28;4.05;;;2.30;;